Terminal Aerodrome Forecast
Issued by NWS Bismarck, ND

Home | Current Version | Previous Version | Text Only | Print | Product List | Glossary On
Versions: 1 2 3 4 5 6 7 8 9 10 11 12 13 14 15 16 17 18 19 20 21 22 23 24 25 26 27 28
000
FTUS43 KBIS 061927 AAA
TAFISN
TAF AMD
KISN 061927Z 0619/0718 30017G23KT P6SM BKN025 OVC050
      TEMPO 0619/0623 5SM BLSN BR OVC035
     FM062300 31015KT P6SM OVC025
     FM070300 31013KT P6SM OVC040
     FM070900 30011KT P6SM OVC015=

USA.gov is the U.S. government's official web portal to all federal, state and local government web resources and services.